sensor_id;sensor_type;location;lat;lon;timestamp;pressure;altitude;pressure_sealevel;temperature;humidity
6204;BME280;3135;42.602;23.468;2022-09-09T00:00:17;93309.66;;;18.49;97.86
6204;BME280;3135;42.602;23.468;2022-09-09T00:02:49;93296.19;;;18.40;97.84
6204;BME280;3135;42.602;23.468;2022-09-09T00:05:26;93299.09;;;18.35;98.50
6204;BME280;3135;42.602;23.468;2022-09-09T00:07:55;93297.47;;;18.34;99.49
6204;BME280;3135;42.602;23.468;2022-09-09T00:10:39;93290.06;;;18.22;100.00
6204;BME280;3135;42.602;23.468;2022-09-09T00:19:41;93274.59;;;17.67;100.00
6204;BME280;3135;42.602;23.468;2022-09-09T00:22:01;93283.00;;;17.83;100.00
6204;BME280;3135;42.602;23.468;2022-09-09T00:24:51;93280.63;;;17.73;100.00
6204;BME280;3135;42.602;23.468;2022-09-09T00:27:51;93285.09;;;17.77;100.00
6204;BME280;3135;42.602;23.468;2022-09-09T00:30:24;93287.16;;;17.63;100.00
6204;BME280;3135;42.602;23.468;2022-09-09T00:32:59;93275.88;;;17.61;100.00
6204;BME280;3135;42.602;23.468;2022-09-09T00:35:34;93279.84;;;17.81;100.00
6204;BME280;3135;42.602;23.468;2022-09-09T00:41:14;93256.94;;;17.78;100.00
6204;BME280;3135;42.602;23.468;2022-09-09T00:43:49;93260.63;;;17.65;100.00
6204;BME280;3135;42.602;23.468;2022-09-09T01:03:10;93244.38;;;18.21;98.92
6204;BME280;3135;42.602;23.468;2022-09-09T01:06:16;93244.47;;;18.33;97.75
6204;BME280;3135;42.602;23.468;2022-09-09T01:11:25;93239.84;;;18.33;97.17
6204;BME280;3135;42.602;23.468;2022-09-09T01:16:37;93240.03;;;18.28;97.06
6204;BME280;3135;42.602;23.468;2022-09-09T01:19:07;93239.41;;;18.31;97.10
6204;BME280;3135;42.602;23.468;2022-09-09T01:21:42;93240.97;;;18.32;96.64
6204;BME280;3135;42.602;23.468;2022-09-09T01:24:24;93249.50;;;18.43;95.79
6204;BME280;3135;42.602;23.468;2022-09-09T01:26:54;93245.75;;;18.35;95.96
6204;BME280;3135;42.602;23.468;2022-09-09T01:29:22;93248.66;;;18.30;96.49
6204;BME280;3135;42.602;23.468;2022-09-09T01:31:59;93243.84;;;18.36;96.29
6204;BME280;3135;42.602;23.468;2022-09-09T01:34:29;93237.69;;;18.27;96.92
6204;BME280;3135;42.602;23.468;2022-09-09T01:37:03;93234.63;;;18.28;97.39
6204;BME280;3135;42.602;23.468;2022-09-09T01:39:32;93237.97;;;18.25;97.29
6204;BME280;3135;42.602;23.468;2022-09-09T01:41:58;93230.53;;;18.22;96.97
6204;BME280;3135;42.602;23.468;2022-09-09T01:44:25;93239.25;;;18.28;96.81
6204;BME280;3135;42.602;23.468;2022-09-09T01:46:52;93242.28;;;18.26;97.08
6204;BME280;3135;42.602;23.468;2022-09-09T01:49:18;93248.50;;;18.27;97.20
6204;BME280;3135;42.602;23.468;2022-09-09T01:51:45;93259.09;;;18.41;96.50
6204;BME280;3135;42.602;23.468;2022-09-09T01:54:11;93263.41;;;18.33;96.90
6204;BME280;3135;42.602;23.468;2022-09-09T01:59:24;93254.16;;;18.04;98.83
6204;BME280;3135;42.602;23.468;2022-09-09T02:02:41;93265.41;;;18.15;100.00
6204;BME280;3135;42.602;23.468;2022-09-09T02:04:52;93271.78;;;18.10;100.00
6204;BME280;3135;42.602;23.468;2022-09-09T02:07:30;93259.94;;;17.68;100.00
6204;BME280;3135;42.602;23.468;2022-09-09T02:12:55;93271.75;;;17.55;100.00
6204;BME280;3135;42.602;23.468;2022-09-09T02:18:10;93276.06;;;17.47;100.00
6204;BME280;3135;42.602;23.468;2022-09-09T02:20:38;93260.63;;;17.65;100.00
6204;BME280;3135;42.602;23.468;2022-09-09T02:23:05;93259.31;;;17.71;100.00
6204;BME280;3135;42.602;23.468;2022-09-09T02:25:34;93256.81;;;17.40;100.00
6204;BME280;3135;42.602;23.468;2022-09-09T02:28:02;93259.19;;;17.59;100.00
6204;BME280;3135;42.602;23.468;2022-09-09T02:30:30;93243.09;;;17.71;100.00
6204;BME280;3135;42.602;23.468;2022-09-09T02:32:58;93230.22;;;17.77;100.00
6204;BME280;3135;42.602;23.468;2022-09-09T02:35:27;93238.69;;;17.49;100.00
6204;BME280;3135;42.602;23.468;2022-09-09T02:37:59;93223.66;;;17.14;100.00
6204;BME280;3135;42.602;23.468;2022-09-09T02:40:26;93235.72;;;17.16;100.00
6204;BME280;3135;42.602;23.468;2022-09-09T02:42:54;93249.72;;;17.18;100.00
6204;BME280;3135;42.602;23.468;2022-09-09T02:45:23;93249.09;;;17.13;100.00
6204;BME280;3135;42.602;23.468;2022-09-09T02:48:18;93224.28;;;17.02;100.00
6204;BME280;3135;42.602;23.468;2022-09-09T02:50:53;93244.63;;;17.08;100.00
6204;BME280;3135;42.602;23.468;2022-09-09T02:53:25;93254.31;;;17.18;100.00
6204;BME280;3135;42.602;23.468;2022-09-09T02:56:09;93264.47;;;17.29;100.00
6204;BME280;3135;42.602;23.468;2022-09-09T02:58:39;93267.78;;;17.44;100.00
6204;BME280;3135;42.602;23.468;2022-09-09T03:01:04;93259.84;;;17.30;100.00
6204;BME280;3135;42.602;23.468;2022-09-09T03:03:31;93258.59;;;17.27;100.00
6204;BME280;3135;42.602;23.468;2022-09-09T03:05:56;93264.13;;;17.31;100.00
6204;BME280;3135;42.602;23.468;2022-09-09T03:08:22;93249.53;;;17.23;100.00
6204;BME280;3135;42.602;23.468;2022-09-09T03:10:47;93247.31;;;17.25;100.00
6204;BME280;3135;42.602;23.468;2022-09-09T03:13:13;93247.19;;;17.13;100.00
6204;BME280;3135;42.602;23.468;2022-09-09T03:15:40;93235.59;;;17.13;100.00
6204;BME280;3135;42.602;23.468;2022-09-09T03:18:06;93267.81;;;17.26;100.00
6204;BME280;3135;42.602;23.468;2022-09-09T03:20:32;93268.75;;;17.22;100.00
6204;BME280;3135;42.602;23.468;2022-09-09T03:22:59;93273.38;;;17.21;100.00
6204;BME280;3135;42.602;23.468;2022-09-09T03:25:25;93258.28;;;17.03;100.00
6204;BME280;3135;42.602;23.468;2022-09-09T03:27:52;93263.06;;;17.06;100.00
6204;BME280;3135;42.602;23.468;2022-09-09T03:30:24;93258.94;;;17.08;100.00
6204;BME280;3135;42.602;23.468;2022-09-09T03:32:50;93266.88;;;17.22;100.00
6204;BME280;3135;42.602;23.468;2022-09-09T03:35:16;93267.66;;;17.31;100.00
6204;BME280;3135;42.602;23.468;2022-09-09T03:37:41;93260.34;;;17.23;100.00
6204;BME280;3135;42.602;23.468;2022-09-09T03:40:08;93272.75;;;17.24;100.00
6204;BME280;3135;42.602;23.468;2022-09-09T03:42:35;93248.91;;;17.18;100.00
6204;BME280;3135;42.602;23.468;2022-09-09T03:45:03;93260.03;;;17.25;100.00
6204;BME280;3135;42.602;23.468;2022-09-09T03:47:29;93275.78;;;17.31;100.00
6204;BME280;3135;42.602;23.468;2022-09-09T03:49:55;93272.75;;;17.24;100.00
6204;BME280;3135;42.602;23.468;2022-09-09T03:52:20;93258.91;;;17.26;100.00
6204;BME280;3135;42.602;23.468;2022-09-09T03:54:46;93257.16;;;17.21;100.00
6204;BME280;3135;42.602;23.468;2022-09-09T03:57:13;93263.69;;;17.11;100.00
6204;BME280;3135;42.602;23.468;2022-09-09T03:59:42;93261.47;;;17.14;100.00
6204;BME280;3135;42.602;23.468;2022-09-09T04:02:07;93263.84;;;16.98;100.00
6204;BME280;3135;42.602;23.468;2022-09-09T04:04:32;93246.53;;;16.81;100.00
6204;BME280;3135;42.602;23.468;2022-09-09T04:06:58;93250.03;;;16.91;100.00
6204;BME280;3135;42.602;23.468;2022-09-09T04:09:23;93260.19;;;16.94;100.00
6204;BME280;3135;42.602;23.468;2022-09-09T04:11:49;93280.03;;;16.98;100.00
6204;BME280;3135;42.602;23.468;2022-09-09T04:14:14;93277.50;;;16.93;100.00
6204;BME280;3135;42.602;23.468;2022-09-09T04:16:40;93277.09;;;16.59;100.00
6204;BME280;3135;42.602;23.468;2022-09-09T04:19:10;93288.13;;;16.72;100.00
6204;BME280;3135;42.602;23.468;2022-09-09T04:21:40;93281.44;;;16.78;100.00
6204;BME280;3135;42.602;23.468;2022-09-09T04:24:09;93283.38;;;16.86;100.00
6204;BME280;3135;42.602;23.468;2022-09-09T04:26:35;93273.38;;;16.86;100.00
6204;BME280;3135;42.602;23.468;2022-09-09T04:29:02;93263.34;;;16.87;100.00
6204;BME280;3135;42.602;23.468;2022-09-09T04:31:28;93279.25;;;16.80;100.00
6204;BME280;3135;42.602;23.468;2022-09-09T04:33:54;93278.75;;;16.86;100.00
6204;BME280;3135;42.602;23.468;2022-09-09T04:36:20;93271.63;;;16.91;100.00
6204;BME280;3135;42.602;23.468;2022-09-09T04:38:46;93266.22;;;16.82;100.00
6204;BME280;3135;42.602;23.468;2022-09-09T04:41:11;93265.72;;;16.89;100.00
6204;BME280;3135;42.602;23.468;2022-09-09T04:43:38;93278.13;;;17.07;100.00
6204;BME280;3135;42.602;23.468;2022-09-09T04:46:05;93284.66;;;17.06;100.00
6204;BME280;3135;42.602;23.468;2022-09-09T04:48:30;93277.50;;;16.93;100.00
6204;BME280;3135;42.602;23.468;2022-09-09T04:51:01;93281.63;;;17.07;100.00
6204;BME280;3135;42.602;23.468;2022-09-09T04:53:27;93282.13;;;17.18;100.00
6204;BME280;3135;42.602;23.468;2022-09-09T04:56:04;93276.09;;;17.04;100.00
6204;BME280;3135;42.602;23.468;2022-09-09T04:58:30;93262.25;;;17.05;100.00
6204;BME280;3135;42.602;23.468;2022-09-09T05:01:09;93269.06;;;17.11;100.00
6204;BME280;3135;42.602;23.468;2022-09-09T05:03:35;93259.72;;;17.09;100.00
6204;BME280;3135;42.602;23.468;2022-09-09T05:06:12;93262.09;;;17.10;100.00
6204;BME280;3135;42.602;23.468;2022-09-09T05:08:38;93242.22;;;16.98;100.00
6204;BME280;3135;42.602;23.468;2022-09-09T05:11:16;93235.59;;;17.04;100.00
6204;BME280;3135;42.602;23.468;2022-09-09T05:13:43;93228.09;;;16.75;100.00
6204;BME280;3135;42.602;23.468;2022-09-09T05:16:09;93239.22;;;16.82;100.00
6204;BME280;3135;42.602;23.468;2022-09-09T05:18:37;93244.47;;;16.96;100.00
6204;BME280;3135;42.602;23.468;2022-09-09T05:21:03;93245.88;;;17.10;100.00
6204;BME280;3135;42.602;23.468;2022-09-09T05:23:28;93259.72;;;17.18;100.00
6204;BME280;3135;42.602;23.468;2022-09-09T05:25:57;93246.06;;;17.14;100.00
6204;BME280;3135;42.602;23.468;2022-09-09T05:28:27;93228.44;;;16.99;100.00
6204;BME280;3135;42.602;23.468;2022-09-09T05:30:59;93215.84;;;17.12;100.00
6204;BME280;3135;42.602;23.468;2022-09-09T05:33:26;93236.31;;;17.56;100.00
6204;BME280;3135;42.602;23.468;2022-09-09T05:35:59;93240.59;;;17.75;100.00
6204;BME280;3135;42.602;23.468;2022-09-09T05:38:25;93217.03;;;17.84;100.00
6204;BME280;3135;42.602;23.468;2022-09-09T05:40:51;93219.22;;;17.91;100.00
6204;BME280;3135;42.602;23.468;2022-09-09T05:43:18;93233.25;;;18.22;100.00
6204;BME280;3135;42.602;23.468;2022-09-09T05:45:45;93225.91;;;18.23;100.00
6204;BME280;3135;42.602;23.468;2022-09-09T05:48:13;93228.13;;;18.21;100.00
6204;BME280;3135;42.602;23.468;2022-09-09T05:50:40;93231.28;;;18.31;100.00
6204;BME280;3135;42.602;23.468;2022-09-09T05:53:05;93227.16;;;18.25;100.00
6204;BME280;3135;42.602;23.468;2022-09-09T05:55:31;93253.25;;;18.30;100.00
6204;BME280;3135;42.602;23.468;2022-09-09T05:57:56;93262.69;;;18.15;100.00
6204;BME280;3135;42.602;23.468;2022-09-09T06:00:22;93254.06;;;18.30;100.00
6204;BME280;3135;42.602;23.468;2022-09-09T06:02:51;93251.50;;;18.25;100.00
6204;BME280;3135;42.602;23.468;2022-09-09T06:05:18;93239.09;;;18.24;100.00
6204;BME280;3135;42.602;23.468;2022-09-09T06:07:43;93248.34;;;18.23;100.00
6204;BME280;3135;42.602;23.468;2022-09-09T06:10:10;93255.53;;;18.49;100.00
6204;BME280;3135;42.602;23.468;2022-09-09T06:12:35;93265.38;;;18.53;100.00
6204;BME280;3135;42.602;23.468;2022-09-09T06:15:01;93270.19;;;18.48;100.00
6204;BME280;3135;42.602;23.468;2022-09-09T06:17:26;93282.75;;;18.52;100.00
6204;BME280;3135;42.602;23.468;2022-09-09T06:19:52;93274.88;;;18.68;100.00
6204;BME280;3135;42.602;23.468;2022-09-09T06:22:18;93266.09;;;18.71;100.00
6204;BME280;3135;42.602;23.468;2022-09-09T06:24:43;93272.47;;;18.75;100.00
6204;BME280;3135;42.602;23.468;2022-09-09T06:27:09;93266.44;;;18.90;100.00
6204;BME280;3135;42.602;23.468;2022-09-09T06:29:36;93270.03;;;19.03;100.00
6204;BME280;3135;42.602;23.468;2022-09-09T06:32:02;93269.25;;;19.03;100.00
6204;BME280;3135;42.602;23.468;2022-09-09T06:34:28;93284.84;;;19.27;100.00
6204;BME280;3135;42.602;23.468;2022-09-09T06:36:53;93276.88;;;19.42;100.00
6204;BME280;3135;42.602;23.468;2022-09-09T06:39:19;93268.81;;;19.55;100.00
6204;BME280;3135;42.602;23.468;2022-09-09T06:41:44;93264.38;;;19.71;100.00
6204;BME280;3135;42.602;23.468;2022-09-09T06:44:10;93268.75;;;19.97;100.00
6204;BME280;3135;42.602;23.468;2022-09-09T06:46:38;93277.81;;;20.13;100.00
6204;BME280;3135;42.602;23.468;2022-09-09T06:49:04;93280.81;;;19.99;100.00
6204;BME280;3135;42.602;23.468;2022-09-09T06:51:34;93256.09;;;20.01;98.24
6204;BME280;3135;42.602;23.468;2022-09-09T06:54:00;93269.81;;;20.29;95.18
6204;BME280;3135;42.602;23.468;2022-09-09T06:56:37;93284.44;;;20.49;95.18
6204;BME280;3135;42.602;23.468;2022-09-09T06:59:06;93282.53;;;20.61;95.03
6204;BME280;3135;42.602;23.468;2022-09-09T07:01:36;93296.66;;;20.91;92.50
6204;BME280;3135;42.602;23.468;2022-09-09T07:04:03;93305.13;;;21.14;89.30
6204;BME280;3135;42.602;23.468;2022-09-09T07:06:37;93301.47;;;21.23;91.45
6204;BME280;3135;42.602;23.468;2022-09-09T07:09:05;93297.06;;;21.18;89.77
6204;BME280;3135;42.602;23.468;2022-09-09T07:11:33;93291.97;;;21.41;87.79
6204;BME280;3135;42.602;23.468;2022-09-09T07:14:00;93295.13;;;21.71;88.57
6204;BME280;3135;42.602;23.468;2022-09-09T07:16:26;93299.88;;;21.74;85.89
6204;BME280;3135;42.602;23.468;2022-09-09T07:18:56;93302.50;;;21.99;86.05
6204;BME280;3135;42.602;23.468;2022-09-09T07:21:23;93293.00;;;21.92;84.41
6204;BME280;3135;42.602;23.468;2022-09-09T07:23:49;93291.28;;;22.16;83.81
6204;BME280;3135;42.602;23.468;2022-09-09T07:26:20;93297.28;;;22.22;81.77
6204;BME280;3135;42.602;23.468;2022-09-09T07:28:46;93283.06;;;22.28;81.76
6204;BME280;3135;42.602;23.468;2022-09-09T07:31:20;93287.97;;;22.38;82.12
6204;BME280;3135;42.602;23.468;2022-09-09T07:33:46;93287.72;;;22.28;81.47
6204;BME280;3135;42.602;23.468;2022-09-09T07:36:14;93282.88;;;22.53;82.76
6204;BME280;3135;42.602;23.468;2022-09-09T07:38:45;93298.00;;;22.66;79.84
6204;BME280;3135;42.602;23.468;2022-09-09T07:41:14;93281.03;;;22.57;82.54
6204;BME280;3135;42.602;23.468;2022-09-09T07:43:42;93287.28;;;22.57;80.89
6204;BME280;3135;42.602;23.468;2022-09-09T07:46:09;93291.69;;;22.78;79.49
6204;BME280;3135;42.602;23.468;2022-09-09T07:48:35;93286.28;;;22.81;78.71
6204;BME280;3135;42.602;23.468;2022-09-09T07:51:15;93298.00;;;22.98;79.65
6204;BME280;3135;42.602;23.468;2022-09-09T07:53:43;93301.59;;;23.37;80.02
6204;BME280;3135;42.602;23.468;2022-09-09T07:56:11;93303.72;;;23.63;80.36
6204;BME280;3135;42.602;23.468;2022-09-09T07:58:38;93297.38;;;23.39;78.59
6204;BME280;3135;42.602;23.468;2022-09-09T08:01:24;93274.81;;;23.42;78.43
6204;BME280;3135;42.602;23.468;2022-09-09T08:03:55;93302.78;;;23.75;75.28
6204;BME280;3135;42.602;23.468;2022-09-09T08:06:22;93296.47;;;23.90;76.03
6204;BME280;3135;42.602;23.468;2022-09-09T08:08:50;93292.88;;;23.66;76.39
6204;BME280;3135;42.602;23.468;2022-09-09T08:11:16;93290.53;;;23.65;75.06
6204;BME280;3135;42.602;23.468;2022-09-09T08:13:43;93295.75;;;23.74;74.11
6204;BME280;3135;42.602;23.468;2022-09-09T08:16:12;93299.66;;;24.34;74.85
6204;BME280;3135;42.602;23.468;2022-09-09T08:18:38;93305.22;;;24.61;70.57
6204;BME280;3135;42.602;23.468;2022-09-09T08:21:12;93292.28;;;25.07;70.27
6204;BME280;3135;42.602;23.468;2022-09-09T08:23:42;93300.16;;;25.09;69.92
6204;BME280;3135;42.602;23.468;2022-09-09T08:26:13;93293.78;;;25.28;67.77
6204;BME280;3135;42.602;23.468;2022-09-09T08:28:40;93278.56;;;25.30;68.60
6204;BME280;3135;42.602;23.468;2022-09-09T08:31:12;93287.47;;;25.54;67.90
6204;BME280;3135;42.602;23.468;2022-09-09T08:33:38;93282.88;;;25.91;65.30
6204;BME280;3135;42.602;23.468;2022-09-09T08:36:05;93274.56;;;26.18;65.64
6204;BME280;3135;42.602;23.468;2022-09-09T08:38:31;93290.06;;;26.40;63.74
6204;BME280;3135;42.602;23.468;2022-09-09T08:41:30;93280.75;;;26.48;63.47
6204;BME280;3135;42.602;23.468;2022-09-09T08:44:00;93293.75;;;26.55;63.23
6204;BME280;3135;42.602;23.468;2022-09-09T08:46:57;93292.22;;;26.58;63.83
6204;BME280;3135;42.602;23.468;2022-09-09T08:52:03;93280.88;;;26.22;64.82
6204;BME280;3135;42.602;23.468;2022-09-09T08:54:34;93288.41;;;26.69;64.07
6204;BME280;3135;42.602;23.468;2022-09-09T08:57:01;93283.91;;;26.91;61.57
6204;BME280;3135;42.602;23.468;2022-09-09T08:59:26;93289.72;;;27.34;61.81
6204;BME280;3135;42.602;23.468;2022-09-09T09:04:56;93284.84;;;27.75;60.35
6204;BME280;3135;42.602;23.468;2022-09-09T09:12:56;93273.69;;;26.88;61.08
6204;BME280;3135;42.602;23.468;2022-09-09T09:15:24;93272.22;;;26.57;63.60
6204;BME280;3135;42.602;23.468;2022-09-09T09:17:50;93270.69;;;26.60;64.46
6204;BME280;3135;42.602;23.468;2022-09-09T09:20:17;93271.78;;;26.52;64.61
6204;BME280;3135;42.602;23.468;2022-09-09T09:22:54;93279.78;;;27.15;62.40
6204;BME280;3135;42.602;23.468;2022-09-09T09:25:26;93280.28;;;27.32;61.98
6204;BME280;3135;42.602;23.468;2022-09-09T09:28:20;93282.31;;;27.45;61.80
6204;BME280;3135;42.602;23.468;2022-09-09T09:31:06;93276.06;;;27.48;60.95
6204;BME280;3135;42.602;23.468;2022-09-09T09:36:06;93257.53;;;27.31;60.42
6204;BME280;3135;42.602;23.468;2022-09-09T09:38:34;93265.47;;;26.92;64.08
6204;BME280;3135;42.602;23.468;2022-09-09T09:41:00;93271.97;;;27.21;63.84
6204;BME280;3135;42.602;23.468;2022-09-09T09:43:30;93263.13;;;26.94;62.67
6204;BME280;3135;42.602;23.468;2022-09-09T09:45:56;93260.00;;;26.95;63.43
6204;BME280;3135;42.602;23.468;2022-09-09T09:48:26;93266.34;;;27.03;64.13
6204;BME280;3135;42.602;23.468;2022-09-09T09:51:13;93273.50;;;27.15;63.70
6204;BME280;3135;42.602;23.468;2022-09-09T09:53:42;93266.59;;;27.42;62.89
6204;BME280;3135;42.602;23.468;2022-09-09T09:56:10;93252.50;;;27.47;61.88
6204;BME280;3135;42.602;23.468;2022-09-09T10:01:30;93244.88;;;27.92;60.26
6204;BME280;3135;42.602;23.468;2022-09-09T10:04:01;93234.66;;;27.89;60.12
6204;BME280;3135;42.602;23.468;2022-09-09T10:06:37;93247.34;;;28.19;60.41
6204;BME280;3135;42.602;23.468;2022-09-09T10:09:17;93246.13;;;28.16;59.31
6204;BME280;3135;42.602;23.468;2022-09-09T10:14:19;93258.44;;;28.97;57.63
6204;BME280;3135;42.602;23.468;2022-09-09T10:16:56;93251.31;;;28.93;58.48
6204;BME280;3135;42.602;23.468;2022-09-09T10:19:33;93254.91;;;29.22;57.96
6204;BME280;3135;42.602;23.468;2022-09-09T10:25:05;93263.47;;;29.49;56.06
6204;BME280;3135;42.602;23.468;2022-09-09T10:31:00;93260.41;;;29.04;56.95
6204;BME280;3135;42.602;23.468;2022-09-09T10:33:48;93260.00;;;28.81;57.27
6204;BME280;3135;42.602;23.468;2022-09-09T10:36:23;93267.06;;;28.57;58.65
6204;BME280;3135;42.602;23.468;2022-09-09T10:39:03;93260.78;;;28.52;58.31
6204;BME280;3135;42.602;23.468;2022-09-09T10:44:45;93267.81;;;28.43;59.30
6204;BME280;3135;42.602;23.468;2022-09-09T10:47:36;93276.09;;;28.53;58.80
6204;BME280;3135;42.602;23.468;2022-09-09T10:50:31;93267.44;;;28.55;57.84
6204;BME280;3135;42.602;23.468;2022-09-09T10:53:08;93263.53;;;28.52;58.14
6204;BME280;3135;42.602;23.468;2022-09-09T10:55:42;93253.69;;;28.59;58.77
6204;BME280;3135;42.602;23.468;2022-09-09T10:58:15;93272.94;;;28.62;57.30
6204;BME280;3135;42.602;23.468;2022-09-09T11:00:52;93271.34;;;28.36;58.17
6204;BME280;3135;42.602;23.468;2022-09-09T11:03:26;93268.59;;;28.40;58.74
6204;BME280;3135;42.602;23.468;2022-09-09T11:05:57;93272.47;;;28.24;60.92
6204;BME280;3135;42.602;23.468;2022-09-09T11:08:25;93257.31;;;27.65;61.51
6204;BME280;3135;42.602;23.468;2022-09-09T11:14:01;93270.56;;;27.48;63.21
6204;BME280;3135;42.602;23.468;2022-09-09T11:16:42;93274.84;;;27.42;62.75
6204;BME280;3135;42.602;23.468;2022-09-09T11:19:39;93273.81;;;27.68;61.66
6204;BME280;3135;42.602;23.468;2022-09-09T11:22:48;93267.53;;;27.68;62.22
6204;BME280;3135;42.602;23.468;2022-09-09T11:25:03;93268.84;;;28.02;59.60
6204;BME280;3135;42.602;23.468;2022-09-09T11:32:54;93269.25;;;27.97;59.28
6204;BME280;3135;42.602;23.468;2022-09-09T11:36:05;93262.16;;;27.86;60.38
6204;BME280;3135;42.602;23.468;2022-09-09T11:38:52;93258.25;;;27.97;60.75
6204;BME280;3135;42.602;23.468;2022-09-09T11:41:22;93246.00;;;27.81;58.55
6204;BME280;3135;42.602;23.468;2022-09-09T11:43:52;93243.28;;;27.77;60.67
6204;BME280;3135;42.602;23.468;2022-09-09T11:46:23;93229.13;;;27.75;60.60
6204;BME280;3135;42.602;23.468;2022-09-09T11:49:00;93226.25;;;27.46;59.69
6204;BME280;3135;42.602;23.468;2022-09-09T11:51:28;93234.16;;;27.59;59.65
6204;BME280;3135;42.602;23.468;2022-09-09T11:54:02;93225.94;;;27.62;59.79
6204;BME280;3135;42.602;23.468;2022-09-09T11:56:31;93218.56;;;27.77;61.84
6204;BME280;3135;42.602;23.468;2022-09-09T11:59:06;93207.38;;;27.41;60.63
6204;BME280;3135;42.602;23.468;2022-09-09T12:01:44;93199.53;;;27.36;60.24
6204;BME280;3135;42.602;23.468;2022-09-09T12:07:04;93178.88;;;26.94;61.45
6204;BME280;3135;42.602;23.468;2022-09-09T12:14:42;93173.78;;;26.89;63.77
6204;BME280;3135;42.602;23.468;2022-09-09T12:17:30;93186.41;;;27.01;63.91
6204;BME280;3135;42.602;23.468;2022-09-09T12:20:13;93193.44;;;27.02;61.67
6204;BME280;3135;42.602;23.468;2022-09-09T12:23:03;93172.19;;;26.88;61.54
6204;BME280;3135;42.602;23.468;2022-09-09T12:33:39;93183.47;;;26.28;63.63
6204;BME280;3135;42.602;23.468;2022-09-09T12:36:12;93167.09;;;26.35;64.61
6204;BME280;3135;42.602;23.468;2022-09-09T12:38:41;93174.28;;;26.50;63.74
6204;BME280;3135;42.602;23.468;2022-09-09T12:41:27;93163.94;;;26.33;66.31
6204;BME280;3135;42.602;23.468;2022-09-09T12:44:05;93165.66;;;26.48;64.66
6204;BME280;3135;42.602;23.468;2022-09-09T12:46:45;93148.97;;;26.68;63.89
6204;BME280;3135;42.602;23.468;2022-09-09T12:49:34;93162.81;;;26.89;64.93
6204;BME280;3135;42.602;23.468;2022-09-09T12:52:07;93162.91;;;27.07;63.47
6204;BME280;3135;42.602;23.468;2022-09-09T12:54:36;93155.09;;;27.09;65.32
6204;BME280;3135;42.602;23.468;2022-09-09T12:57:03;93156.28;;;27.08;63.71
6204;BME280;3135;42.602;23.468;2022-09-09T12:59:37;93155.50;;;27.11;63.25
6204;BME280;3135;42.602;23.468;2022-09-09T13:02:25;93152.78;;;27.15;63.75
6204;BME280;3135;42.602;23.468;2022-09-09T13:04:51;93143.44;;;27.26;65.14
6204;BME280;3135;42.602;23.468;2022-09-09T13:07:18;93128.50;;;27.20;64.42
6204;BME280;3135;42.602;23.468;2022-09-09T13:09:45;93140.75;;;27.44;64.41
6204;BME280;3135;42.602;23.468;2022-09-09T13:12:15;93131.38;;;27.60;66.58
6204;BME280;3135;42.602;23.468;2022-09-09T13:14:44;93125.34;;;27.15;63.82
6204;BME280;3135;42.602;23.468;2022-09-09T13:17:18;93135.94;;;27.23;63.79
6204;BME280;3135;42.602;23.468;2022-09-09T13:19:44;93115.16;;;27.12;64.26
6204;BME280;3135;42.602;23.468;2022-09-09T13:22:24;93130.44;;;27.13;64.07
6204;BME280;3135;42.602;23.468;2022-09-09T13:27:41;93124.25;;;27.30;63.60
6204;BME280;3135;42.602;23.468;2022-09-09T13:30:28;93125.50;;;27.58;64.45
6204;BME280;3135;42.602;23.468;2022-09-09T13:35:32;93119.16;;;27.43;63.16
6204;BME280;3135;42.602;23.468;2022-09-09T13:37:59;93126.97;;;27.26;64.10
6204;BME280;3135;42.602;23.468;2022-09-09T13:40:32;93125.81;;;27.38;64.47
6204;BME280;3135;42.602;23.468;2022-09-09T13:42:59;93113.69;;;27.46;63.54
6204;BME280;3135;42.602;23.468;2022-09-09T13:45:26;93116.72;;;27.16;65.75
6204;BME280;3135;42.602;23.468;2022-09-09T13:47:53;93107.72;;;27.16;65.88
6204;BME280;3135;42.602;23.468;2022-09-09T13:50:28;93114.03;;;27.27;65.75
6204;BME280;3135;42.602;23.468;2022-09-09T13:52:56;93108.91;;;27.22;65.69
6204;BME280;3135;42.602;23.468;2022-09-09T13:55:25;93094.75;;;27.13;66.38
6204;BME280;3135;42.602;23.468;2022-09-09T14:00:22;93104.88;;;27.01;69.04
6204;BME280;3135;42.602;23.468;2022-09-09T14:02:49;93083.69;;;26.91;72.26
6204;BME280;3135;42.602;23.468;2022-09-09T14:05:15;93088.41;;;27.05;71.41
6204;BME280;3135;42.602;23.468;2022-09-09T14:07:41;93083.81;;;27.16;70.71
6204;BME280;3135;42.602;23.468;2022-09-09T14:10:08;93086.59;;;27.27;69.44
6204;BME280;3135;42.602;23.468;2022-09-09T14:12:33;93087.59;;;26.94;70.36
6204;BME280;3135;42.602;23.468;2022-09-09T14:14:58;93076.81;;;26.49;72.96
6204;BME280;3135;42.602;23.468;2022-09-09T14:17:27;93076.53;;;26.72;72.25
6204;BME280;3135;42.602;23.468;2022-09-09T14:19:55;93078.91;;;26.81;72.65
6204;BME280;3135;42.602;23.468;2022-09-09T14:22:21;93084.84;;;26.90;70.69
6204;BME280;3135;42.602;23.468;2022-09-09T14:24:47;93066.44;;;26.94;72.21
6204;BME280;3135;42.602;23.468;2022-09-09T14:27:13;93092.34;;;27.04;71.97
6204;BME280;3135;42.602;23.468;2022-09-09T14:29:38;93074.97;;;26.75;72.09
6204;BME280;3135;42.602;23.468;2022-09-09T14:32:04;93075.66;;;26.58;73.00
6204;BME280;3135;42.602;23.468;2022-09-09T14:34:29;93076.53;;;26.72;72.45
6204;BME280;3135;42.602;23.468;2022-09-09T14:36:57;93068.59;;;26.57;71.81
6204;BME280;3135;42.602;23.468;2022-09-09T14:39:23;93057.25;;;26.58;71.56
6204;BME280;3135;42.602;23.468;2022-09-09T14:41:48;93063.97;;;26.68;71.54
6204;BME280;3135;42.602;23.468;2022-09-09T14:44:14;93059.66;;;26.63;74.21
6204;BME280;3135;42.602;23.468;2022-09-09T14:46:41;93057.53;;;26.42;72.61
6204;BME280;3135;42.602;23.468;2022-09-09T14:49:08;93061.63;;;26.70;71.98
6204;BME280;3135;42.602;23.468;2022-09-09T14:51:35;93054.63;;;26.80;70.04
6204;BME280;3135;42.602;23.468;2022-09-09T14:54:01;93045.19;;;26.77;69.26
6204;BME280;3135;42.602;23.468;2022-09-09T14:56:29;93058.53;;;26.75;69.51
6204;BME280;3135;42.602;23.468;2022-09-09T14:58:57;93069.97;;;26.91;68.82
6204;BME280;3135;42.602;23.468;2022-09-09T15:01:23;93075.53;;;27.09;69.39
6204;BME280;3135;42.602;23.468;2022-09-09T15:03:53;93068.44;;;27.05;70.49
6204;BME280;3135;42.602;23.468;2022-09-09T15:06:19;93073.22;;;27.18;69.54